sensor_id;sensor_type;location;lat;lon;timestamp;temperature;humidity
49441;DHT22;35317;51.978;6.296;2023-01-16T00:00:30;6.20;99.90
49441;DHT22;35317;51.978;6.296;2023-01-16T00:05:31;6.30;99.90
49441;DHT22;35317;51.978;6.296;2023-01-16T00:10:32;6.30;99.90
49441;DHT22;35317;51.978;6.296;2023-01-16T00:15:33;6.40;99.90
49441;DHT22;35317;51.978;6.296;2023-01-16T00:20:33;6.40;99.90
49441;DHT22;35317;51.978;6.296;2023-01-16T00:25:38;6.40;99.90
49441;DHT22;35317;51.978;6.296;2023-01-16T00:30:41;6.40;99.90
49441;DHT22;35317;51.978;6.296;2023-01-16T00:35:43;6.40;99.90
49441;DHT22;35317;51.978;6.296;2023-01-16T00:40:43;6.40;99.90
49441;DHT22;35317;51.978;6.296;2023-01-16T00:45:44;6.40;99.90
49441;DHT22;35317;51.978;6.296;2023-01-16T00:50:45;6.40;99.90
49441;DHT22;35317;51.978;6.296;2023-01-16T00:55:46;6.30;99.90
49441;DHT22;35317;51.978;6.296;2023-01-16T01:00:47;6.30;99.90
49441;DHT22;35317;51.978;6.296;2023-01-16T01:05:47;6.20;99.90
49441;DHT22;35317;51.978;6.296;2023-01-16T01:10:48;6.10;99.90
49441;DHT22;35317;51.978;6.296;2023-01-16T01:15:49;6.10;99.90
49441;DHT22;35317;51.978;6.296;2023-01-16T01:20:50;6.10;99.90
49441;DHT22;35317;51.978;6.296;2023-01-16T01:25:51;6.00;99.90
49441;DHT22;35317;51.978;6.296;2023-01-16T01:30:52;6.00;99.90
49441;DHT22;35317;51.978;6.296;2023-01-16T01:35:53;6.00;99.90
49441;DHT22;35317;51.978;6.296;2023-01-16T01:40:54;5.90;99.90
49441;DHT22;35317;51.978;6.296;2023-01-16T01:45:55;5.90;99.90
49441;DHT22;35317;51.978;6.296;2023-01-16T01:56:16;5.80;99.90
49441;DHT22;35317;51.978;6.296;2023-01-16T02:01:22;5.80;99.90
49441;DHT22;35317;51.978;6.296;2023-01-16T02:06:47;5.70;99.90
49441;DHT22;35317;51.978;6.296;2023-01-16T02:11:54;5.70;99.90
49441;DHT22;35317;51.978;6.296;2023-01-16T02:17:17;5.70;99.90
49441;DHT22;35317;51.978;6.296;2023-01-16T02:28:43;5.70;99.90
49441;DHT22;35317;51.978;6.296;2023-01-16T02:34:33;5.80;99.90
49441;DHT22;35317;51.978;6.296;2023-01-16T02:40:10;5.80;99.90
49441;DHT22;35317;51.978;6.296;2023-01-16T02:45:28;5.70;99.90
49441;DHT22;35317;51.978;6.296;2023-01-16T02:50:39;5.60;99.90
49441;DHT22;35317;51.978;6.296;2023-01-16T02:55:58;5.40;99.90
49441;DHT22;35317;51.978;6.296;2023-01-16T03:01:03;5.20;99.90
49441;DHT22;35317;51.978;6.296;2023-01-16T03:06:26;5.10;99.90
49441;DHT22;35317;51.978;6.296;2023-01-16T03:11:42;4.90;99.90
49441;DHT22;35317;51.978;6.296;2023-01-16T03:22:13;4.70;99.90
49441;DHT22;35317;51.978;6.296;2023-01-16T03:27:43;4.70;99.90
49441;DHT22;35317;51.978;6.296;2023-01-16T03:33:02;4.70;99.90
49441;DHT22;35317;51.978;6.296;2023-01-16T03:38:09;4.70;99.90
49441;DHT22;35317;51.978;6.296;2023-01-16T03:43:21;4.60;99.90
49441;DHT22;35317;51.978;6.296;2023-01-16T03:48:44;4.50;99.90
49441;DHT22;35317;51.978;6.296;2023-01-16T03:53:57;4.40;99.90
49441;DHT22;35317;51.978;6.296;2023-01-16T03:59:03;4.40;99.90
49441;DHT22;35317;51.978;6.296;2023-01-16T04:04:08;4.30;99.90
49441;DHT22;35317;51.978;6.296;2023-01-16T04:09:23;4.20;99.90
49441;DHT22;35317;51.978;6.296;2023-01-16T04:14:28;4.20;99.90
49441;DHT22;35317;51.978;6.296;2023-01-16T04:19:31;4.10;99.90
49441;DHT22;35317;51.978;6.296;2023-01-16T04:24:34;4.10;99.90
49441;DHT22;35317;51.978;6.296;2023-01-16T04:29:35;4.20;99.90
49441;DHT22;35317;51.978;6.296;2023-01-16T04:34:36;4.30;99.90
49441;DHT22;35317;51.978;6.296;2023-01-16T04:39:37;4.30;99.90
49441;DHT22;35317;51.978;6.296;2023-01-16T04:44:38;4.40;99.90
49441;DHT22;35317;51.978;6.296;2023-01-16T04:49:38;4.40;99.90
49441;DHT22;35317;51.978;6.296;2023-01-16T04:54:39;4.40;99.90
49441;DHT22;35317;51.978;6.296;2023-01-16T04:59:40;4.40;99.90
49441;DHT22;35317;51.978;6.296;2023-01-16T05:04:40;4.40;99.90
49441;DHT22;35317;51.978;6.296;2023-01-16T05:09:42;4.40;99.90
49441;DHT22;35317;51.978;6.296;2023-01-16T05:14:43;4.40;99.90
49441;DHT22;35317;51.978;6.296;2023-01-16T05:19:44;4.40;99.90
49441;DHT22;35317;51.978;6.296;2023-01-16T05:24:44;4.30;99.90
49441;DHT22;35317;51.978;6.296;2023-01-16T05:29:45;4.30;99.90
49441;DHT22;35317;51.978;6.296;2023-01-16T05:34:46;4.20;99.90
49441;DHT22;35317;51.978;6.296;2023-01-16T05:39:46;4.20;99.90
49441;DHT22;35317;51.978;6.296;2023-01-16T05:44:48;4.20;99.90
49441;DHT22;35317;51.978;6.296;2023-01-16T05:49:49;4.20;99.90
49441;DHT22;35317;51.978;6.296;2023-01-16T05:54:50;4.20;99.90
49441;DHT22;35317;51.978;6.296;2023-01-16T05:59:52;4.20;99.90
49441;DHT22;35317;51.978;6.296;2023-01-16T06:04:53;4.30;99.90
49441;DHT22;35317;51.978;6.296;2023-01-16T06:09:54;4.30;99.90
49441;DHT22;35317;51.978;6.296;2023-01-16T06:14:54;4.40;99.90
49441;DHT22;35317;51.978;6.296;2023-01-16T06:19:55;4.50;99.90
49441;DHT22;35317;51.978;6.296;2023-01-16T06:24:57;4.60;99.90
49441;DHT22;35317;51.978;6.296;2023-01-16T06:29:58;4.80;99.90
49441;DHT22;35317;51.978;6.296;2023-01-16T06:34:59;4.80;99.90
49441;DHT22;35317;51.978;6.296;2023-01-16T06:39:59;4.90;99.90
49441;DHT22;35317;51.978;6.296;2023-01-16T06:45:01;4.90;99.90
49441;DHT22;35317;51.978;6.296;2023-01-16T06:50:03;5.00;99.90
49441;DHT22;35317;51.978;6.296;2023-01-16T06:55:06;5.10;99.90
49441;DHT22;35317;51.978;6.296;2023-01-16T07:00:11;5.10;99.90
49441;DHT22;35317;51.978;6.296;2023-01-16T07:05:13;5.10;99.90
49441;DHT22;35317;51.978;6.296;2023-01-16T07:10:14;5.20;99.90
49441;DHT22;35317;51.978;6.296;2023-01-16T07:15:15;5.20;99.90
49441;DHT22;35317;51.978;6.296;2023-01-16T07:20:35;5.30;99.90
49441;DHT22;35317;51.978;6.296;2023-01-16T07:25:55;5.40;99.90
49441;DHT22;35317;51.978;6.296;2023-01-16T07:30:57;5.40;99.90
49441;DHT22;35317;51.978;6.296;2023-01-16T07:35:58;5.40;99.90
49441;DHT22;35317;51.978;6.296;2023-01-16T07:40:59;5.40;99.90
49441;DHT22;35317;51.978;6.296;2023-01-16T07:46:00;5.50;99.90
49441;DHT22;35317;51.978;6.296;2023-01-16T07:51:01;5.50;99.90
49441;DHT22;35317;51.978;6.296;2023-01-16T07:56:03;5.50;99.90
49441;DHT22;35317;51.978;6.296;2023-01-16T08:01:03;5.50;99.90
49441;DHT22;35317;51.978;6.296;2023-01-16T08:06:06;5.40;99.90
49441;DHT22;35317;51.978;6.296;2023-01-16T08:11:07;5.40;99.90
49441;DHT22;35317;51.978;6.296;2023-01-16T08:16:26;5.40;99.90
49441;DHT22;35317;51.978;6.296;2023-01-16T08:21:27;5.40;99.90
49441;DHT22;35317;51.978;6.296;2023-01-16T08:26:28;5.30;99.90
49441;DHT22;35317;51.978;6.296;2023-01-16T08:31:29;5.30;99.90
49441;DHT22;35317;51.978;6.296;2023-01-16T08:36:30;5.30;99.90
49441;DHT22;35317;51.978;6.296;2023-01-16T08:41:31;5.30;99.90
49441;DHT22;35317;51.978;6.296;2023-01-16T08:47:03;5.30;99.90
49441;DHT22;35317;51.978;6.296;2023-01-16T08:52:25;5.30;99.90
49441;DHT22;35317;51.978;6.296;2023-01-16T08:57:28;5.30;99.90
49441;DHT22;35317;51.978;6.296;2023-01-16T09:02:29;5.30;99.90
49441;DHT22;35317;51.978;6.296;2023-01-16T09:07:31;5.40;99.90
49441;DHT22;35317;51.978;6.296;2023-01-16T09:12:32;5.40;99.90
49441;DHT22;35317;51.978;6.296;2023-01-16T09:17:51;5.40;99.90
49441;DHT22;35317;51.978;6.296;2023-01-16T09:23:10;5.50;99.90
49441;DHT22;35317;51.978;6.296;2023-01-16T09:28:11;5.50;99.90
49441;DHT22;35317;51.978;6.296;2023-01-16T09:33:12;5.60;99.90
49441;DHT22;35317;51.978;6.296;2023-01-16T09:38:12;5.70;99.90
49441;DHT22;35317;51.978;6.296;2023-01-16T09:43:35;5.70;99.90
49441;DHT22;35317;51.978;6.296;2023-01-16T09:54:21;5.80;99.90
49441;DHT22;35317;51.978;6.296;2023-01-16T09:59:53;5.80;99.90
49441;DHT22;35317;51.978;6.296;2023-01-16T10:04:55;5.90;99.90
49441;DHT22;35317;51.978;6.296;2023-01-16T10:26:59;5.90;99.90
49441;DHT22;35317;51.978;6.296;2023-01-16T10:32:32;6.00;99.90
49441;DHT22;35317;51.978;6.296;2023-01-16T10:37:44;6.00;99.90
49441;DHT22;35317;51.978;6.296;2023-01-16T10:42:49;5.90;99.90
49441;DHT22;35317;51.978;6.296;2023-01-16T10:48:15;6.00;99.90
49441;DHT22;35317;51.978;6.296;2023-01-16T10:53:35;6.00;99.90
49441;DHT22;35317;51.978;6.296;2023-01-16T10:58:38;6.00;99.90
49441;DHT22;35317;51.978;6.296;2023-01-16T11:03:47;6.10;99.90
49441;DHT22;35317;51.978;6.296;2023-01-16T11:08:53;6.10;99.90
49441;DHT22;35317;51.978;6.296;2023-01-16T11:13:54;6.20;99.90
49441;DHT22;35317;51.978;6.296;2023-01-16T11:19:23;6.20;99.90
49441;DHT22;35317;51.978;6.296;2023-01-16T11:24:33;6.30;99.90
49441;DHT22;35317;51.978;6.296;2023-01-16T11:29:39;6.30;99.90
49441;DHT22;35317;51.978;6.296;2023-01-16T11:34:47;6.30;99.90
49441;DHT22;35317;51.978;6.296;2023-01-16T11:39:51;6.30;99.90
49441;DHT22;35317;51.978;6.296;2023-01-16T11:44:54;6.30;99.90
49441;DHT22;35317;51.978;6.296;2023-01-16T11:50:33;6.40;99.90
49441;DHT22;35317;51.978;6.296;2023-01-16T11:55:43;6.60;99.90
49441;DHT22;35317;51.978;6.296;2023-01-16T12:07:25;6.90;99.90
49441;DHT22;35317;51.978;6.296;2023-01-16T12:12:40;6.90;99.90
49441;DHT22;35317;51.978;6.296;2023-01-16T12:18:24;7.00;99.90
49441;DHT22;35317;51.978;6.296;2023-01-16T12:30:14;7.30;99.90
49441;DHT22;35317;51.978;6.296;2023-01-16T12:35:39;7.40;99.90
49441;DHT22;35317;51.978;6.296;2023-01-16T12:46:52;7.40;99.90
49441;DHT22;35317;51.978;6.296;2023-01-16T12:57:33;7.40;99.90
49441;DHT22;35317;51.978;6.296;2023-01-16T13:02:57;7.40;99.90
49441;DHT22;35317;51.978;6.296;2023-01-16T13:08:06;7.40;99.90
49441;DHT22;35317;51.978;6.296;2023-01-16T13:13:16;7.50;99.90
49441;DHT22;35317;51.978;6.296;2023-01-16T13:18:40;7.50;99.90
49441;DHT22;35317;51.978;6.296;2023-01-16T13:23:48;7.50;99.90
49441;DHT22;35317;51.978;6.296;2023-01-16T13:29:13;7.40;99.90
49441;DHT22;35317;51.978;6.296;2023-01-16T13:34:27;7.30;99.90
49441;DHT22;35317;51.978;6.296;2023-01-16T13:45:33;7.30;99.90
49441;DHT22;35317;51.978;6.296;2023-01-16T13:50:57;7.30;99.90
49441;DHT22;35317;51.978;6.296;2023-01-16T13:56:23;7.20;99.90
49441;DHT22;35317;51.978;6.296;2023-01-16T14:17:01;7.00;99.90
49441;DHT22;35317;51.978;6.296;2023-01-16T14:22:02;7.00;99.90
49441;DHT22;35317;51.978;6.296;2023-01-16T14:27:11;6.90;99.90
49441;DHT22;35317;51.978;6.296;2023-01-16T14:37:26;6.90;99.90
49441;DHT22;35317;51.978;6.296;2023-01-16T14:42:50;6.90;99.90
49441;DHT22;35317;51.978;6.296;2023-01-16T14:53:41;6.90;99.90
49441;DHT22;35317;51.978;6.296;2023-01-16T14:59:14;6.90;99.90
49441;DHT22;35317;51.978;6.296;2023-01-16T15:04:22;6.80;99.90
49441;DHT22;35317;51.978;6.296;2023-01-16T15:09:28;6.80;99.90
49441;DHT22;35317;51.978;6.296;2023-01-16T15:14:29;6.80;99.90
49441;DHT22;35317;51.978;6.296;2023-01-16T15:19:30;6.80;99.90
49441;DHT22;35317;51.978;6.296;2023-01-16T15:24:59;6.80;99.90
49441;DHT22;35317;51.978;6.296;2023-01-16T15:30:13;6.70;99.90
49441;DHT22;35317;51.978;6.296;2023-01-16T15:35:21;6.70;99.90
49441;DHT22;35317;51.978;6.296;2023-01-16T15:40:24;6.70;99.90
49441;DHT22;35317;51.978;6.296;2023-01-16T15:45:26;6.70;99.90
49441;DHT22;35317;51.978;6.296;2023-01-16T15:51:08;6.70;99.90
49441;DHT22;35317;51.978;6.296;2023-01-16T15:56:41;6.60;99.90
49441;DHT22;35317;51.978;6.296;2023-01-16T16:01:44;6.60;99.90
49441;DHT22;35317;51.978;6.296;2023-01-16T16:06:46;6.60;99.90
49441;DHT22;35317;51.978;6.296;2023-01-16T16:11:47;6.60;99.90
49441;DHT22;35317;51.978;6.296;2023-01-16T16:17:31;6.60;99.90
49441;DHT22;35317;51.978;6.296;2023-01-16T16:23:01;6.50;99.90
49441;DHT22;35317;51.978;6.296;2023-01-16T16:33:18;6.50;99.90
49441;DHT22;35317;51.978;6.296;2023-01-16T16:38:31;6.40;99.90
49441;DHT22;35317;51.978;6.296;2023-01-16T16:43:58;6.40;99.90
49441;DHT22;35317;51.978;6.296;2023-01-16T16:54:26;6.30;99.90
49441;DHT22;35317;51.978;6.296;2023-01-16T16:59:28;6.30;99.90
49441;DHT22;35317;51.978;6.296;2023-01-16T17:04:34;6.20;99.90
49441;DHT22;35317;51.978;6.296;2023-01-16T17:09:35;6.20;99.90
49441;DHT22;35317;51.978;6.296;2023-01-16T17:14:36;6.20;99.90
49441;DHT22;35317;51.978;6.296;2023-01-16T17:19:37;6.20;99.90
49441;DHT22;35317;51.978;6.296;2023-01-16T17:24:38;6.20;99.90
49441;DHT22;35317;51.978;6.296;2023-01-16T17:29:39;6.10;99.90
49441;DHT22;35317;51.978;6.296;2023-01-16T17:34:42;6.10;99.90
49441;DHT22;35317;51.978;6.296;2023-01-16T17:39:43;6.10;99.90
49441;DHT22;35317;51.978;6.296;2023-01-16T17:44:44;6.20;99.90
49441;DHT22;35317;51.978;6.296;2023-01-16T17:50:03;6.20;99.90
49441;DHT22;35317;51.978;6.296;2023-01-16T17:55:22;6.10;99.90
49441;DHT22;35317;51.978;6.296;2023-01-16T18:00:43;6.10;99.90
49441;DHT22;35317;51.978;6.296;2023-01-16T18:05:44;6.10;99.90
49441;DHT22;35317;51.978;6.296;2023-01-16T18:10:45;6.20;99.90
49441;DHT22;35317;51.978;6.296;2023-01-16T18:15:46;6.10;99.90
49441;DHT22;35317;51.978;6.296;2023-01-16T18:21:10;6.20;99.90
49441;DHT22;35317;51.978;6.296;2023-01-16T18:26:30;6.20;99.90
49441;DHT22;35317;51.978;6.296;2023-01-16T18:31:31;6.20;99.90
49441;DHT22;35317;51.978;6.296;2023-01-16T18:36:32;6.20;99.90
49441;DHT22;35317;51.978;6.296;2023-01-16T18:41:32;6.20;99.90
49441;DHT22;35317;51.978;6.296;2023-01-16T18:46:52;6.20;99.90
49441;DHT22;35317;51.978;6.296;2023-01-16T18:52:16;6.20;99.90
49441;DHT22;35317;51.978;6.296;2023-01-16T18:57:36;6.20;99.90
49441;DHT22;35317;51.978;6.296;2023-01-16T19:02:55;6.20;99.90
49441;DHT22;35317;51.978;6.296;2023-01-16T19:07:57;6.20;99.90
49441;DHT22;35317;51.978;6.296;2023-01-16T19:12:59;6.20;99.90
49441;DHT22;35317;51.978;6.296;2023-01-16T19:18:01;6.30;99.90
49441;DHT22;35317;51.978;6.296;2023-01-16T19:23:02;6.30;99.90
49441;DHT22;35317;51.978;6.296;2023-01-16T19:28:03;6.30;99.90
49441;DHT22;35317;51.978;6.296;2023-01-16T19:33:04;6.30;99.90
49441;DHT22;35317;51.978;6.296;2023-01-16T19:38:05;6.20;99.90
49441;DHT22;35317;51.978;6.296;2023-01-16T19:43:06;6.10;99.90
49441;DHT22;35317;51.978;6.296;2023-01-16T19:48:25;6.00;99.90
49441;DHT22;35317;51.978;6.296;2023-01-16T19:53:26;5.90;99.90
49441;DHT22;35317;51.978;6.296;2023-01-16T19:58:27;5.60;99.90
49441;DHT22;35317;51.978;6.296;2023-01-16T20:03:27;5.40;99.90
49441;DHT22;35317;51.978;6.296;2023-01-16T20:08:28;5.30;99.90
49441;DHT22;35317;51.978;6.296;2023-01-16T20:13:29;5.20;99.90
49441;DHT22;35317;51.978;6.296;2023-01-16T20:18:31;5.10;99.90
49441;DHT22;35317;51.978;6.296;2023-01-16T20:23:33;5.00;99.90
49441;DHT22;35317;51.978;6.296;2023-01-16T20:28:35;4.90;99.90
49441;DHT22;35317;51.978;6.296;2023-01-16T20:33:37;4.90;99.90
49441;DHT22;35317;51.978;6.296;2023-01-16T20:38:38;4.90;99.90
49441;DHT22;35317;51.978;6.296;2023-01-16T20:43:39;4.90;99.90
49441;DHT22;35317;51.978;6.296;2023-01-16T20:48:58;4.80;99.90
49441;DHT22;35317;51.978;6.296;2023-01-16T20:54:00;4.80;99.90
49441;DHT22;35317;51.978;6.296;2023-01-16T20:59:05;4.80;99.90
49441;DHT22;35317;51.978;6.296;2023-01-16T21:04:06;4.90;99.90
49441;DHT22;35317;51.978;6.296;2023-01-16T21:09:09;4.90;99.90
49441;DHT22;35317;51.978;6.296;2023-01-16T21:14:10;4.80;99.90
49441;DHT22;35317;51.978;6.296;2023-01-16T21:19:11;4.90;99.90
49441;DHT22;35317;51.978;6.296;2023-01-16T21:24:30;4.90;99.90
49441;DHT22;35317;51.978;6.296;2023-01-16T21:29:31;4.90;99.90
49441;DHT22;35317;51.978;6.296;2023-01-16T21:34:35;4.90;99.90
49441;DHT22;35317;51.978;6.296;2023-01-16T21:39:37;4.90;99.90
49441;DHT22;35317;51.978;6.296;2023-01-16T21:44:38;5.00;99.90
49441;DHT22;35317;51.978;6.296;2023-01-16T21:49:57;5.00;99.90
49441;DHT22;35317;51.978;6.296;2023-01-16T21:54:57;5.10;99.90
49441;DHT22;35317;51.978;6.296;2023-01-16T21:59:58;5.10;99.90
49441;DHT22;35317;51.978;6.296;2023-01-16T22:04:59;5.00;99.90
49441;DHT22;35317;51.978;6.296;2023-01-16T22:10:00;5.00;99.90
49441;DHT22;35317;51.978;6.296;2023-01-16T22:15:01;5.10;99.90
49441;DHT22;35317;51.978;6.296;2023-01-16T22:20:22;5.10;99.90
49441;DHT22;35317;51.978;6.296;2023-01-16T22:25:25;5.10;99.90
49441;DHT22;35317;51.978;6.296;2023-01-16T22:30:27;5.10;99.90
49441;DHT22;35317;51.978;6.296;2023-01-16T22:35:28;5.10;99.90
49441;DHT22;35317;51.978;6.296;2023-01-16T22:40:28;5.10;99.90
49441;DHT22;35317;51.978;6.296;2023-01-16T22:45:29;5.10;99.90
49441;DHT22;35317;51.978;6.296;2023-01-16T22:50:48;5.20;99.90
49441;DHT22;35317;51.978;6.296;2023-01-16T22:55:53;5.10;99.90
49441;DHT22;35317;51.978;6.296;2023-01-16T23:00:54;5.20;99.90
49441;DHT22;35317;51.978;6.296;2023-01-16T23:05:55;5.20;99.90
49441;DHT22;35317;51.978;6.296;2023-01-16T23:11:22;5.20;99.90
49441;DHT22;35317;51.978;6.296;2023-01-16T23:16:27;5.20;99.90
49441;DHT22;35317;51.978;6.296;2023-01-16T23:21:30;5.20;99.90
49441;DHT22;35317;51.978;6.296;2023-01-16T23:26:33;5.10;99.90
49441;DHT22;35317;51.978;6.296;2023-01-16T23:31:36;5.10;99.90
49441;DHT22;35317;51.978;6.296;2023-01-16T23:36:37;4.90;99.90
49441;DHT22;35317;51.978;6.296;2023-01-16T23:41:38;4.80;99.90
49441;DHT22;35317;51.978;6.296;2023-01-16T23:52:04;4.70;99.90
49441;DHT22;35317;51.978;6.296;2023-01-16T23:57:12;4.70;99.90
